Time;durP1;ratioP1;P1;durP2;ratioP2;P2;SDS_P1;SDS_P2;PMS_P1;PMS_P2;Temp;Humidity;BMP_temperature;BMP_pressure;BME280_temperature;BME280_humidity;BME280_pressure;Samples;Min_cycle;Max_cycle;Signal;HPM_P1;HPM_P2
2023/08/02 00:00:56;;;;;;;0.43;0.43;;;;;;;15.03;78.47;96052.53;88174;202;64005;-53
2023/08/02 00:01:28;;;;;;;0.40;0.40;;;;;;;15.04;79.14;96057.66;29394;222;64009;-53
2023/08/02 00:01:59;;;;;;;0.40;0.40;;;;;;;15.05;79.57;96053.00;29395;211;63004;-53
2023/08/02 00:02:33;;;;;;;0.40;0.40;;;;;;;15.04;79.19;96054.13;29395;211;63017;-53
2023/08/02 00:03:05;;;;;;;0.40;0.40;;;;;;;15.03;79.22;96060.72;29395;212;63004;-54
2023/08/02 00:03:36;;;;;;;0.40;0.40;;;;;;;15.03;79.52;96049.81;29395;354;63009;-54
2023/08/02 00:04:07;;;;;;;0.40;0.40;;;;;;;15.03;79.46;96050.59;29395;297;63005;-53
2023/08/02 00:04:39;;;;;;;0.40;0.40;;;;;;;15.03;79.52;96049.81;29395;202;63009;-53
2023/08/02 00:05:10;;;;;;;0.40;0.40;;;;;;;15.04;79.97;96046.72;29394;375;64009;-53
2023/08/02 00:05:42;;;;;;;0.40;0.40;;;;;;;15.05;80.08;96053.78;29395;352;63009;-53
2023/08/02 00:06:13;;;;;;;0.40;0.40;;;;;;;15.05;79.30;96050.25;29395;199;63010;-53
2023/08/02 00:06:44;;;;;;;0.40;0.40;;;;;;;15.03;78.75;96055.28;29395;229;63009;-54
2023/08/02 00:07:15;;;;;;;0.50;0.50;;;;;;;15.03;79.25;96055.28;29395;228;63005;-53
2023/08/02 00:07:47;;;;;;;0.50;0.50;;;;;;;15.03;78.83;96052.53;29395;347;63009;-53
2023/08/02 00:08:19;;;;;;;0.40;0.40;;;;;;;15.03;79.22;96050.59;29395;213;63010;-52
2023/08/02 00:08:50;;;;;;;0.40;0.40;;;;;;;15.07;79.64;96050.72;29395;209;63009;-54
2023/08/02 00:09:21;;;;;;;0.45;0.45;;;;;;;15.07;79.15;96050.72;29394;213;64009;-53
2023/08/02 00:09:52;;;;;;;0.50;0.50;;;;;;;15.07;79.03;96045.25;29395;204;63009;-53
2023/08/02 00:10:24;;;;;;;0.50;0.50;;;;;;;15.08;79.22;96044.13;29394;234;64008;-53
2023/08/02 00:10:55;;;;;;;0.40;0.40;;;;;;;15.08;78.51;96052.31;29395;222;63008;-53
2023/08/02 00:11:27;;;;;;;0.40;0.40;;;;;;;15.07;78.65;96050.72;29394;280;64009;-53
2023/08/02 00:11:58;;;;;;;0.43;0.43;;;;;;;15.07;78.51;96050.72;29395;284;63009;-53
2023/08/02 00:12:30;;;;;;;0.40;0.40;;;;;;;15.06;78.77;96052.66;29395;212;63005;-53
2023/08/02 00:13:01;;;;;;;0.50;0.50;;;;;;;15.06;79.04;96057.31;29395;203;63009;-53
2023/08/02 00:13:32;;;;;;;0.40;0.40;;;;;;;15.05;79.74;96058.47;29395;225;63005;-54
2023/08/02 00:14:04;;;;;;;0.40;0.40;;;;;;;15.03;79.48;96049.81;29394;222;64013;-55
2023/08/02 00:14:35;;;;;;;0.40;0.40;;;;;;;15.02;79.17;96053.66;29395;203;63005;-55
2023/08/02 00:15:07;;;;;;;0.40;0.40;;;;;;;15.06;79.56;96043.66;29395;323;63009;-55
2023/08/02 00:15:38;;;;;;;0.40;0.40;;;;;;;15.06;79.17;96043.66;29395;320;63004;-55
2023/08/02 00:16:11;;;;;;;0.40;0.40;;;;;;;15.06;78.55;96044.47;29395;203;63009;-55
2023/08/02 00:16:42;;;;;;;0.40;0.40;;;;;;;15.07;78.69;96048.00;29395;264;63004;-54
2023/08/02 00:17:16;;;;;;;0.50;0.50;;;;;;;15.06;78.53;96047.19;29395;223;63009;-64
2023/08/02 00:17:48;;;;;;;0.40;0.40;;;;;;;15.07;78.90;96050.72;29395;356;63004;-53
2023/08/02 00:18:19;;;;;;;0.40;0.40;;;;;;;15.08;78.60;96052.31;29395;201;63008;-53
2023/08/02 00:18:50;;;;;;;0.40;0.40;;;;;;;15.08;79.17;96041.38;29395;228;63005;-53
2023/08/02 00:19:21;;;;;;;0.40;0.40;;;;;;;15.07;78.76;96050.72;29394;201;64014;-52
2023/08/02 00:19:53;;;;;;;0.50;0.50;;;;;;;15.08;78.71;96049.59;29395;199;63005;-63
2023/08/02 00:20:24;;;;;;;0.40;0.40;;;;;;;15.07;79.01;96043.31;29395;205;63009;-65
2023/08/02 00:20:59;;;;;;;0.50;0.50;;;;;;;15.10;80.20;96050.03;29395;204;63005;-63
2023/08/02 00:21:30;;;;;;;0.40;0.40;;;;;;;15.10;80.30;96047.31;29395;238;63009;-53
2023/08/02 00:22:02;;;;;;;0.43;0.43;;;;;;;15.08;80.44;96044.13;29395;214;63005;-65
2023/08/02 00:22:33;;;;;;;0.50;0.50;;;;;;;15.12;80.90;96047.75;29395;237;63009;-53
2023/08/02 00:23:08;;;;;;;0.50;0.50;;;;;;;15.16;81.77;96048.66;29395;217;63004;-53
2023/08/02 00:23:39;;;;;;;0.50;0.50;;;;;;;15.16;79.55;96047.88;29395;234;63009;-54
2023/08/02 00:24:11;;;;;;;0.50;0.50;;;;;;;15.15;79.77;96049.81;29395;243;63004;-64
2023/08/02 00:24:45;;;;;;;0.40;0.40;;;;;;;15.13;79.84;96038.44;29394;291;64013;-63
2023/08/02 00:25:17;;;;;;;0.40;0.40;;;;;;;15.13;79.24;96038.44;29395;289;63004;-53
2023/08/02 00:25:52;;;;;;;0.50;0.50;;;;;;;15.15;79.83;96040.81;29395;217;63016;-63
2023/08/02 00:26:23;;;;;;;0.40;0.40;;;;;;;15.14;80.02;96040.03;29395;216;63005;-54
2023/08/02 00:26:55;;;;;;;0.50;0.50;;;;;;;15.15;80.13;96036.16;29395;243;63009;-53
2023/08/02 00:27:26;;;;;;;0.50;0.50;;;;;;;15.14;79.61;96040.03;29395;219;63005;-53
2023/08/02 00:27:58;;;;;;;0.40;0.40;;;;;;;15.13;79.65;96032.97;29395;221;63009;-63
2023/08/02 00:28:30;;;;;;;0.40;0.40;;;;;;;15.13;80.14;96035.69;29395;225;63005;-63
2023/08/02 00:29:02;;;;;;;0.47;0.47;;;;;;;15.13;79.93;96035.69;29395;217;63009;-64
2023/08/02 00:29:33;;;;;;;0.50;0.50;;;;;;;15.15;79.80;96036.16;29395;212;63005;-65
2023/08/02 00:30:07;;;;;;;0.50;0.50;;;;;;;15.15;79.92;96036.16;29394;202;64013;-61
2023/08/02 00:30:46;;;;;;;0.50;0.50;;;;;;;15.23;81.76;96027.03;29395;268;63004;-65
2023/08/02 00:31:17;;;;;;;0.50;0.50;;;;;;;15.26;82.00;96025.53;29395;212;63009;-62
2023/08/02 00:31:50;;;;;;;0.50;0.50;;;;;;;15.28;81.26;96029.50;29395;212;63004;-53
2023/08/02 00:32:22;;;;;;;0.50;0.50;;;;;;;15.29;81.24;96025.62;29395;198;63009;-53
2023/08/02 00:32:53;;;;;;;0.40;0.40;;;;;;;15.28;81.45;96029.50;29395;197;63004;-53
2023/08/02 00:33:24;;;;;;;0.40;0.40;;;;;;;15.26;80.21;96023.59;29395;202;63008;-53
2023/08/02 00:33:56;;;;;;;0.40;0.40;;;;;;;15.25;80.24;96024.72;29395;203;63005;-53
2023/08/02 00:34:30;;;;;;;0.40;0.40;;;;;;;15.25;80.88;96024.72;29395;200;63017;-53
2023/08/02 00:35:03;;;;;;;0.40;0.40;;;;;;;15.25;81.14;96018.47;29395;218;63005;-53
2023/08/02 00:35:34;;;;;;;0.40;0.40;;;;;;;15.23;80.70;96018.84;29394;211;64005;-61
2023/08/02 00:36:05;;;;;;;0.50;0.50;;;;;;;15.24;80.29;96027.84;29395;203;63005;-53
2023/08/02 00:36:36;;;;;;;0.50;0.50;;;;;;;15.24;80.34;96011.44;29395;235;63009;-53
2023/08/02 00:37:08;;;;;;;0.50;0.50;;;;;;;15.26;80.38;96017.34;29395;209;63004;-53
2023/08/02 00:37:41;;;;;;;0.40;0.40;;;;;;;15.25;79.84;96008.34;29394;202;64013;-53
2023/08/02 00:38:13;;;;;;;0.50;0.50;;;;;;;15.24;80.19;96012.25;29395;227;63004;-53
2023/08/02 00:38:44;;;;;;;0.50;0.50;;;;;;;15.24;79.70;96011.44;29395;202;63009;-53
2023/08/02 00:39:15;;;;;;;0.40;0.40;;;;;;;15.24;80.09;96009.50;29395;218;63004;-55
2023/08/02 00:39:51;;;;;;;0.40;0.40;;;;;;;15.25;80.42;96007.53;29395;199;63008;-55
2023/08/02 00:40:25;;;;;;;0.40;0.40;;;;;;;15.26;80.15;96003.66;29395;215;63004;-63
2023/08/02 00:41:05;;;;;;;0.45;0.45;;;;;;;15.26;80.51;96014.59;29395;201;63008;-64
2023/08/02 00:41:36;;;;;;;0.40;0.40;;;;;;;15.25;79.97;95999.34;29439;289;63005;-54
2023/08/02 00:42:07;;;;;;;0.43;0.43;;;;;;;15.24;80.10;96004.03;29371;228;64014;-55
2023/08/02 00:42:39;;;;;;;0.50;0.50;;;;;;;15.22;80.19;95998.13;29395;238;63005;-55
2023/08/02 00:43:10;;;;;;;0.40;0.40;;;;;;;15.22;80.60;96003.59;29394;232;64013;-54
2023/08/02 00:43:45;;;;;;;0.40;0.40;;;;;;;15.23;81.01;96004.38;29395;340;63011;-53
2023/08/02 00:44:16;;;;;;;0.50;0.50;;;;;;;15.23;81.67;96007.91;29395;286;63009;-54
2023/08/02 00:44:48;;;;;;;0.47;0.47;;;;;;;15.23;81.81;96002.44;29395;202;63008;-53
2023/08/02 00:45:19;;;;;;;0.40;0.40;;;;;;;15.23;81.41;95998.91;29395;218;63009;-53
2023/08/02 00:45:51;;;;;;;0.50;0.50;;;;;;;15.22;81.44;95995.38;29394;213;64009;-52
2023/08/02 00:46:22;;;;;;;0.40;0.40;;;;;;;15.20;81.36;96005.06;29395;212;63009;-54
2023/08/02 00:46:54;;;;;;;0.50;0.50;;;;;;;15.19;81.47;96004.28;29395;343;63004;-64
2023/08/02 00:47:25;;;;;;;0.50;0.50;;;;;;;15.20;81.38;96002.34;29395;207;63008;-53
2023/08/02 00:47:58;;;;;;;0.40;0.40;;;;;;;15.22;82.74;96008.25;29395;213;63004;-53
2023/08/02 00:48:29;;;;;;;0.40;0.40;;;;;;;15.21;82.91;96003.94;29395;209;63017;-54
2023/08/02 00:49:00;;;;;;;0.40;0.40;;;;;;;15.28;81.24;95996.72;29395;247;63005;-56
2023/08/02 00:49:32;;;;;;;0.40;0.40;;;;;;;15.29;80.78;96001.03;29394;240;64014;-53
2023/08/02 00:50:05;;;;;;;0.40;0.40;;;;;;;15.29;81.76;95992.84;29395;239;63005;-65
2023/08/02 00:50:40;;;;;;;0.40;0.40;;;;;;;15.32;80.64;95994.88;29395;235;63009;-64
2023/08/02 00:51:14;;;;;;;0.50;0.50;;;;;;;15.32;81.15;95986.69;29395;202;63005;-64
2023/08/02 00:51:46;;;;;;;0.40;0.40;;;;;;;15.31;80.97;95989.78;29395;320;63024;-53
2023/08/02 00:52:18;;;;;;;0.50;0.50;;;;;;;15.29;81.16;95986.59;29395;218;63004;-53
2023/08/02 00:52:51;;;;;;;0.40;0.40;;;;;;;15.29;81.63;95987.38;29394;252;64013;-64
2023/08/02 00:53:23;;;;;;;0.40;0.40;;;;;;;15.27;80.98;95989.66;29395;225;63004;-53
2023/08/02 00:53:54;;;;;;;0.40;0.40;;;;;;;15.24;80.92;95993.09;29395;199;63009;-53
2023/08/02 00:54:28;;;;;;;0.40;0.40;;;;;;;15.25;81.40;95991.94;29394;226;64004;-53
2023/08/02 00:54:59;;;;;;;0.40;0.40;;;;;;;15.26;81.13;95988.06;29395;378;63013;-53
2023/08/02 00:55:31;;;;;;;0.50;0.50;;;;;;;15.24;81.07;95987.62;29395;335;63004;-53
2023/08/02 00:56:03;;;;;;;0.40;0.40;;;;;;;15.23;80.94;95983.31;29395;214;63009;-53
2023/08/02 00:56:34;;;;;;;0.47;0.47;;;;;;;15.23;81.35;95990.72;29395;225;63010;-54
2023/08/02 00:57:07;;;;;;;0.50;0.50;;;;;;;15.20;81.34;95983.22;29395;198;63009;-53
2023/08/02 00:57:38;;;;;;;0.40;0.40;;;;;;;15.19;81.65;95998.00;29395;236;63005;-53
2023/08/02 00:58:10;;;;;;;0.50;0.50;;;;;;;15.18;81.40;95990.94;29394;220;64004;-53
2023/08/02 00:58:43;;;;;;;0.40;0.40;;;;;;;15.16;81.33;95995.97;29395;199;63005;-53
2023/08/02 00:59:14;;;;;;;0.40;0.40;;;;;;;15.15;81.39;95986.16;29395;243;63009;-53
2023/08/02 00:59:46;;;;;;;0.40;0.40;;;;;;;15.13;81.61;95983.78;29394;212;64004;-53
2023/08/02 01:00:17;;;;;;;0.40;0.40;;;;;;;15.12;82.33;95982.19;29395;212;63009;-54
2023/08/02 01:00:49;;;;;;;0.40;0.40;;;;;;;15.13;83.37;95983.78;29395;252;63004;-53
2023/08/02 01:01:20;;;;;;;0.40;0.40;;;;;;;15.13;83.15;95980.25;29395;197;63009;-53
2023/08/02 01:01:52;;;;;;;0.40;0.40;;;;;;;15.11;82.51;95977.84;29394;315;64009;-53
2023/08/02 01:02:24;;;;;;;0.47;0.47;;;;;;;15.11;83.61;95983.31;29395;270;63008;-62
2023/08/02 01:02:56;;;;;;;0.40;0.40;;;;;;;15.11;83.40;95975.13;29395;227;63004;-53
2023/08/02 01:03:28;;;;;;;0.40;0.40;;;;;;;15.12;82.22;95976.72;29395;204;63016;-54
2023/08/02 01:03:59;;;;;;;0.40;0.40;;;;;;;15.12;82.10;95982.19;29395;210;63005;-53
2023/08/02 01:04:30;;;;;;;0.40;0.40;;;;;;;15.12;82.41;95981.38;29395;199;63009;-54
2023/08/02 01:05:03;;;;;;;0.40;0.40;;;;;;;15.12;82.94;95986.84;29395;276;63005;-53
2023/08/02 01:05:43;;;;;;;0.40;0.40;;;;;;;15.14;82.77;95979.91;29395;238;63009;-53
2023/08/02 01:06:51;;;;;;;0.40;0.40;;;;;;;15.10;82.64;95979.00;29417;214;63005;-53
2023/08/02 01:07:40;;;;;;;0.50;0.50;;;;;;;15.08;83.17;95987.53;29394;212;64008;-53
2023/08/02 01:08:19;;;;;;;0.45;0.45;;;;;;;15.07;83.45;95985.16;29395;218;63004;-53
2023/08/02 01:09:04;;;;;;;0.50;0.50;;;;;;;15.04;82.84;95980.38;29394;200;64013;-53
2023/08/02 01:09:47;;;;;;;0.45;0.45;;;;;;;15.02;83.71;95988.09;29395;230;63004;-53
2023/08/02 01:10:49;;;;;;;0.50;0.50;;;;;;;15.00;83.92;95990.38;29395;209;63008;-52
2023/08/02 01:11:27;;;;;;;;;;;;;;;14.98;83.92;95993.47;29996;982;6000;-53
2023/08/02 01:12:09;;;;;;;0.50;0.50;;;;;;;14.97;83.81;95993.81;29399;335;64009;-53
2023/08/02 01:12:44;;;;;;;0.50;0.50;;;;;;;14.97;84.14;95993.81;29394;246;64013;-53
2023/08/02 01:13:18;;;;;;;0.40;0.40;;;;;;;14.95;83.79;95993.34;29395;242;63005;-53
2023/08/02 01:13:51;;;;;;;0.50;0.50;;;;;;;14.94;83.14;95995.28;29395;198;63009;-54
2023/08/02 01:14:26;;;;;;;0.50;0.50;;;;;;;14.96;83.20;95994.94;29395;219;63004;-54
2023/08/02 01:15:03;;;;;;;0.45;0.45;;;;;;;14.97;84.75;96000.06;29395;223;63009;-53
2023/08/02 01:15:36;;;;;;;0.50;0.50;;;;;;;14.95;84.08;95996.06;29395;230;63004;-54
2023/08/02 01:16:08;;;;;;;0.50;0.50;;;;;;;14.92;84.03;96005.75;29395;227;63009;-53
2023/08/02 01:16:41;;;;;;;0.40;0.40;;;;;;;14.90;83.57;96007.25;29394;253;64004;-53
2023/08/02 01:17:13;;;;;;;0.50;0.50;;;;;;;14.88;84.01;95998.59;29395;228;63008;-53
2023/08/02 01:17:45;;;;;;;0.50;0.50;;;;;;;14.87;83.81;95999.75;29394;249;64009;-53
2023/08/02 01:18:17;;;;;;;0.50;0.50;;;;;;;14.87;84.73;96003.28;29395;301;63019;-53
2023/08/02 01:18:51;;;;;;;0.40;0.40;;;;;;;14.85;83.73;96002.03;29395;211;63005;-64
2023/08/02 01:19:23;;;;;;;0.50;0.50;;;;;;;14.82;83.55;95994.50;29395;211;63009;-54
2023/08/02 01:19:54;;;;;;;0.50;0.50;;;;;;;14.80;83.04;95999.50;29394;202;64005;-53
2023/08/02 01:20:25;;;;;;;0.50;0.50;;;;;;;14.79;83.29;95995.19;29395;202;63017;-53
2023/08/02 01:20:57;;;;;;;0.40;0.40;;;;;;;14.83;84.86;95996.09;29395;214;63005;-53
2023/08/02 01:21:28;;;;;;;0.50;0.50;;;;;;;14.81;84.07;95996.44;29395;209;63009;-53
2023/08/02 01:22:00;;;;;;;0.47;0.47;;;;;;;14.82;84.33;95991.78;29395;216;63004;-53
2023/08/02 01:22:31;;;;;;;0.43;0.43;;;;;;;14.81;84.71;95993.72;29394;198;64013;-54
2023/08/02 01:23:03;;;;;;;0.40;0.40;;;;;;;14.80;83.93;95980.41;29395;244;63004;-53
2023/08/02 01:23:34;;;;;;;0.40;0.40;;;;;;;14.81;84.52;95987.44;29395;198;63009;-54
2023/08/02 01:24:07;;;;;;;0.50;0.50;;;;;;;14.81;85.39;95982.00;29395;203;63004;-54
2023/08/02 01:24:38;;;;;;;0.40;0.40;;;;;;;14.84;86.04;95978.56;29395;221;63008;-53
2023/08/02 01:25:10;;;;;;;0.40;0.40;;;;;;;14.82;84.43;95978.13;29395;218;63005;-53
2023/08/02 01:25:45;;;;;;;0.40;0.40;;;;;;;14.81;84.85;95974.59;29395;230;63009;-55
2023/08/02 01:26:20;;;;;;;0.40;0.40;;;;;;;14.85;84.52;95971.97;29395;244;63005;-54
2023/08/02 01:26:54;;;;;;;0.40;0.40;;;;;;;14.84;83.92;95970.38;29395;205;63009;-53
2023/08/02 01:27:34;;;;;;;0.40;0.40;;;;;;;14.82;84.26;95964.47;29394;250;64009;-52
2023/08/02 01:28:16;;;;;;;0.50;0.50;;;;;;;14.82;85.09;95961.72;29416;230;64013;-53
2023/08/02 01:28:52;;;;;;;0.50;0.50;;;;;;;14.83;84.33;95963.31;29373;260;63005;-53
2023/08/02 01:29:27;;;;;;;0.50;0.50;;;;;;;14.85;85.33;95966.50;29395;228;63009;-53
2023/08/02 01:30:01;;;;;;;0.50;0.50;;;;;;;14.81;84.39;95965.59;29395;217;63004;-53
2023/08/02 01:30:38;;;;;;;0.40;0.40;;;;;;;14.79;83.78;95962.41;29394;233;64013;-53
2023/08/02 01:31:11;;;;;;;0.50;0.50;;;;;;;14.74;83.83;95966.97;29395;219;63004;-53
2023/08/02 01:31:43;;;;;;;0.40;0.40;;;;;;;14.73;84.23;95962.63;29395;275;63008;-53
2023/08/02 01:32:21;;;;;;;0.40;0.40;;;;;;;14.71;84.33;95962.19;29395;324;63007;-53
2023/08/02 01:32:53;;;;;;;0.40;0.40;;;;;;;14.69;84.52;95958.19;29395;216;63009;-52
2023/08/02 01:33:32;;;;;;;0.50;0.50;;;;;;;14.66;84.19;95961.59;29395;218;63005;-53
2023/08/02 01:34:05;;;;;;;0.40;0.40;;;;;;;14.65;85.00;95963.53;29394;209;64014;-53
2023/08/02 01:34:37;;;;;;;0.40;0.40;;;;;;;14.65;85.05;95957.28;29395;206;63005;-54
2023/08/02 01:35:09;;;;;;;0.40;0.40;;;;;;;14.64;84.85;95961.94;29395;226;63009;-52
2023/08/02 01:35:41;;;;;;;0.40;0.40;;;;;;;14.64;84.43;95958.44;29395;197;63010;-53
2023/08/02 01:36:13;;;;;;;0.40;0.40;;;;;;;14.64;84.96;95956.50;29395;212;63009;-53
2023/08/02 01:36:44;;;;;;;0.40;0.40;;;;;;;14.67;84.65;95963.22;29395;204;63004;-53
2023/08/02 01:37:19;;;;;;;0.40;0.40;;;;;;;14.66;84.60;95965.12;29395;237;63009;-53
2023/08/02 01:37:50;;;;;;;0.40;0.40;;;;;;;14.68;84.96;95953.87;29395;224;63000;-54
2023/08/02 01:38:21;;;;;;;0.50;0.50;;;;;;;14.66;85.19;95958.88;29395;291;63009;-53
2023/08/02 01:38:53;;;;;;;0.47;0.47;;;;;;;14.65;84.87;95958.09;29395;283;63004;-53
2023/08/02 01:39:26;;;;;;;0.40;0.40;;;;;;;14.64;84.95;95961.16;29394;277;64013;-53
2023/08/02 01:39:58;;;;;;;0.50;0.50;;;;;;;14.65;84.68;95958.09;29395;317;63004;-53
2023/08/02 01:40:30;;;;;;;0.50;0.50;;;;;;;14.64;84.88;95956.50;29395;237;63009;-53
2023/08/02 01:41:02;;;;;;;0.40;0.40;;;;;;;14.64;84.61;95955.69;29395;212;63005;-53
2023/08/02 01:41:33;;;;;;;0.40;0.40;;;;;;;14.64;85.51;95961.94;29395;207;63009;-53
2023/08/02 01:42:04;;;;;;;0.40;0.40;;;;;;;14.64;86.04;95956.50;29395;264;63007;-53
2023/08/02 01:42:36;;;;;;;0.50;0.50;;;;;;;14.64;86.16;95951.03;29395;197;63009;-53
2023/08/02 01:43:07;;;;;;;0.40;0.40;;;;;;;14.63;85.85;95948.63;29395;264;63005;-53
2023/08/02 01:43:38;;;;;;;0.47;0.47;;;;;;;14.66;85.61;95953.41;29394;202;64013;-53
2023/08/02 01:44:10;;;;;;;0.50;0.50;;;;;;;14.62;85.33;95958.75;29395;284;63005;-53
2023/08/02 01:44:41;;;;;;;0.40;0.40;;;;;;;14.64;85.81;95955.69;29395;236;63009;-54
2023/08/02 01:45:13;;;;;;;0.45;0.45;;;;;;;14.63;85.64;95960.34;29395;199;63004;-55
2023/08/02 01:45:44;;;;;;;0.40;0.40;;;;;;;14.67;84.81;95963.22;29395;233;63009;-53
2023/08/02 01:46:15;;;;;;;0.40;0.40;;;;;;;14.68;85.05;95957.41;29395;246;63004;-61
2023/08/02 01:46:46;;;;;;;0.45;0.45;;;;;;;14.66;85.26;95954.22;29395;225;63008;-54
2023/08/02 01:47:17;;;;;;;0.40;0.40;;;;;;;14.67;85.97;95955.81;29395;224;63010;-54
2023/08/02 01:47:51;;;;;;;0.40;0.40;;;;;;;14.66;86.34;95959.69;29394;233;64014;-54
2023/08/02 01:48:23;;;;;;;0.50;0.50;;;;;;;14.64;86.12;95961.94;29395;199;63005;-54
2023/08/02 01:48:54;;;;;;;0.40;0.40;;;;;;;14.62;86.15;95957.97;29395;214;63009;-54
2023/08/02 01:49:25;;;;;;;0.50;0.50;;;;;;;14.60;86.20;95961.03;29395;239;63005;-54
2023/08/02 01:49:56;;;;;;;0.50;0.50;;;;;;;14.58;86.35;95963.31;29394;212;64013;-54
2023/08/02 01:50:28;;;;;;;0.50;0.50;;;;;;;14.56;86.46;95962.84;29395;369;63005;-53
2023/08/02 01:50:59;;;;;;;0.40;0.40;;;;;;;14.55;86.43;95964.00;29395;227;63009;-54
2023/08/02 01:51:30;;;;;;;0.40;0.40;;;;;;;14.57;87.28;95960.91;29395;198;63005;-53
2023/08/02 01:52:02;;;;;;;0.40;0.40;;;;;;;14.57;87.27;95958.97;29395;221;63009;-53
2023/08/02 01:52:33;;;;;;;0.50;0.50;;;;;;;14.61;87.20;95961.84;29395;253;63004;-53
2023/08/02 01:53:04;;;;;;;0.40;0.40;;;;;;;14.66;87.01;95953.41;29394;262;64013;-53
2023/08/02 01:53:36;;;;;;;0.50;0.50;;;;;;;14.66;85.75;95958.88;29395;221;63004;-65
2023/08/02 01:54:07;;;;;;;0.50;0.50;;;;;;;14.66;85.53;95965.12;29394;260;64013;-54
2023/08/02 01:54:39;;;;;;;0.43;0.43;;;;;;;14.67;85.34;95955.81;29395;202;63004;-53
2023/08/02 01:55:10;;;;;;;0.40;0.40;;;;;;;14.64;85.68;95956.50;29395;303;63009;-55
2023/08/02 01:55:41;;;;;;;0.50;0.50;;;;;;;14.66;87.21;95954.22;29395;333;63005;-53
2023/08/02 01:56:13;;;;;;;0.50;0.50;;;;;;;14.67;86.87;95960.47;29395;197;63009;-54
2023/08/02 01:56:44;;;;;;;0.50;0.50;;;;;;;14.63;86.48;95965.81;29395;227;63005;-54
2023/08/02 01:57:15;;;;;;;0.40;0.40;;;;;;;14.61;86.13;95957.16;29395;206;63009;-53
2023/08/02 01:57:46;;;;;;;0.50;0.50;;;;;;;14.61;85.09;95962.63;29395;211;63005;-54
2023/08/02 01:58:18;;;;;;;0.50;0.50;;;;;;;14.63;86.23;95963.09;29395;199;63009;-53
2023/08/02 01:58:50;;;;;;;0.50;0.50;;;;;;;14.65;85.64;95957.28;29394;228;64009;-55
2023/08/02 01:59:21;;;;;;;0.50;0.50;;;;;;;14.62;85.42;95958.75;29395;202;63009;-53
2023/08/02 01:59:52;;;;;;;0.50;0.50;;;;;;;14.60;85.65;95955.56;29395;286;63004;-54
2023/08/02 02:00:24;;;;;;;0.50;0.50;;;;;;;14.57;86.07;95958.97;29395;222;63009;-65
2023/08/02 02:00:55;;;;;;;0.40;0.40;;;;;;;14.54;85.65;95950.72;29395;199;63004;-54
2023/08/02 02:01:26;;;;;;;0.50;0.50;;;;;;;14.51;85.46;95952.19;29395;228;63009;-53
2023/08/02 02:01:57;;;;;;;0.50;0.50;;;;;;;14.51;85.67;95957.62;29395;202;63004;-53
2023/08/02 02:02:29;;;;;;;0.40;0.40;;;;;;;14.51;86.83;95963.09;29395;199;63008;-53
2023/08/02 02:03:00;;;;;;;0.50;0.50;;;;;;;14.50;86.56;95966.97;29395;232;63005;-53
2023/08/02 02:03:32;;;;;;;0.40;0.40;;;;;;;14.50;86.66;95966.97;29394;214;64014;-61
2023/08/02 02:04:03;;;;;;;0.50;0.50;;;;;;;14.51;87.19;95971.28;29395;211;63005;-54
2023/08/02 02:04:34;;;;;;;0.40;0.40;;;;;;;14.50;87.37;95966.97;29395;227;63017;-53
2023/08/02 02:05:06;;;;;;;0.50;0.50;;;;;;;14.50;86.97;95966.16;29395;221;63005;-54
2023/08/02 02:05:38;;;;;;;0.47;0.47;;;;;;;14.47;87.12;95967.66;29395;223;63009;-53
2023/08/02 02:06:09;;;;;;;0.50;0.50;;;;;;;14.47;87.30;95967.66;29394;222;64005;-53
2023/08/02 02:06:40;;;;;;;0.50;0.50;;;;;;;14.48;87.63;95963.78;29395;227;63009;-53
2023/08/02 02:07:12;;;;;;;0.50;0.50;;;;;;;14.47;87.10;95958.66;29395;383;63004;-53
2023/08/02 02:07:43;;;;;;;0.43;0.43;;;;;;;14.48;87.92;95952.84;29394;276;64013;-53
2023/08/02 02:08:14;;;;;;;0.50;0.50;;;;;;;14.50;87.89;95952.53;29395;321;63004;-53
2023/08/02 02:08:46;;;;;;;0.50;0.50;;;;;;;14.54;88.42;95946.03;29394;273;64009;-53
2023/08/02 02:09:17;;;;;;;0.50;0.50;;;;;;;14.55;88.07;95955.81;29395;225;63004;-53
2023/08/02 02:09:48;;;;;;;0.40;0.40;;;;;;;14.52;87.12;95951.03;29394;228;64013;-53
2023/08/02 02:10:20;;;;;;;0.50;0.50;;;;;;;14.53;87.04;95944.44;29395;209;63005;-53
2023/08/02 02:10:53;;;;;;;0.50;0.50;;;;;;;14.52;87.28;95948.31;29395;232;63009;-53
2023/08/02 02:11:24;;;;;;;0.50;0.50;;;;;;;14.53;87.12;95939.00;29395;294;63005;-54
2023/08/02 02:11:55;;;;;;;0.50;0.50;;;;;;;14.56;86.15;95930.09;29395;255;63009;-64
2023/08/02 02:12:27;;;;;;;0.50;0.50;;;;;;;14.59;85.20;95943.06;29395;202;63005;-53
2023/08/02 02:12:59;;;;;;;0.50;0.50;;;;;;;14.59;85.87;95937.59;29395;227;63009;-54
2023/08/02 02:13:31;;;;;;;0.40;0.40;;;;;;;14.62;85.62;95934.19;29395;222;63005;-53
2023/08/02 02:14:04;;;;;;;0.50;0.50;;;;;;;14.64;86.11;95939.31;29394;197;64013;-53
2023/08/02 02:14:35;;;;;;;0.50;0.50;;;;;;;14.65;86.79;95930.78;29395;202;63004;-54
2023/08/02 02:15:09;;;;;;;0.40;0.40;;;;;;;14.65;86.92;95930.78;29394;288;64013;-61
2023/08/02 02:15:40;;;;;;;0.40;0.40;;;;;;;14.63;86.47;95926.81;29395;197;63004;-54
2023/08/02 02:16:11;;;;;;;0.50;0.50;;;;;;;14.62;86.62;95928.72;29395;207;63015;-54
2023/08/02 02:16:43;;;;;;;0.40;0.40;;;;;;;14.62;86.80;95919.75;29395;202;63004;-53
2023/08/02 02:17:14;;;;;;;0.40;0.40;;;;;;;14.57;86.43;95923.50;29395;193;63019;-54
2023/08/02 02:17:46;;;;;;;0.40;0.40;;;;;;;14.56;86.65;95921.91;29395;244;63004;-54
2023/08/02 02:18:17;;;;;;;0.40;0.40;;;;;;;14.54;86.99;95918.75;29395;216;63009;-55
2023/08/02 02:18:49;;;;;;;0.40;0.40;;;;;;;14.57;87.36;95917.25;29394;240;64005;-53
2023/08/02 02:19:20;;;;;;;0.50;0.50;;;;;;;14.55;87.23;95912.16;29395;344;63009;-54
2023/08/02 02:19:52;;;;;;;0.40;0.40;;;;;;;14.53;86.83;95917.16;29395;223;63005;-53
2023/08/02 02:20:23;;;;;;;0.50;0.50;;;;;;;14.55;87.85;95920.34;29394;234;64013;-55
2023/08/02 02:20:54;;;;;;;0.50;0.50;;;;;;;14.57;88.00;95923.50;29395;248;63005;-53
2023/08/02 02:21:25;;;;;;;0.40;0.40;;;;;;;14.55;87.57;95914.88;29395;209;63009;-53
2023/08/02 02:21:57;;;;;;;0.43;0.43;;;;;;;14.53;86.71;95919.88;29395;226;63004;-54
2023/08/02 02:22:28;;;;;;;0.50;0.50;;;;;;;14.57;86.10;95918.03;29395;305;63009;-54
2023/08/02 02:22:59;;;;;;;0.43;0.43;;;;;;;14.58;85.46;95925.09;29395;197;63004;-54
2023/08/02 02:23:30;;;;;;;0.50;0.50;;;;;;;14.60;86.65;95928.28;29395;224;63009;-53
2023/08/02 02:24:02;;;;;;;0.40;0.40;;;;;;;14.60;86.63;95922.81;29395;218;63000;-53
2023/08/02 02:24:37;;;;;;;0.50;0.50;;;;;;;14.60;85.98;95928.28;29395;205;63009;-53
2023/08/02 02:25:09;;;;;;;0.50;0.50;;;;;;;14.59;85.65;95923.94;29395;233;63005;-54
2023/08/02 02:25:40;;;;;;;0.40;0.40;;;;;;;14.60;85.90;95920.09;29394;203;64014;-54
2023/08/02 02:26:11;;;;;;;0.50;0.50;;;;;;;14.58;85.54;95914.16;29395;239;63005;-53
2023/08/02 02:26:42;;;;;;;0.50;0.50;;;;;;;14.59;85.46;95914.97;29395;236;63009;-53
2023/08/02 02:27:14;;;;;;;0.50;0.50;;;;;;;14.58;85.81;95918.84;29395;221;63014;-66
2023/08/02 02:27:45;;;;;;;0.40;0.40;;;;;;;14.66;85.48;95921.44;29395;202;63009;-63
2023/08/02 02:28:19;;;;;;;0.50;0.50;;;;;;;14.65;85.05;95919.84;29395;226;63005;-54
2023/08/02 02:28:51;;;;;;;0.40;0.40;;;;;;;14.69;86.21;95920.78;29395;218;63009;-54
2023/08/02 02:29:23;;;;;;;0.47;0.47;;;;;;;14.71;85.71;95917.69;29395;289;63004;-67
2023/08/02 02:29:54;;;;;;;0.40;0.40;;;;;;;14.73;84.13;95918.94;29395;319;63009;-53
2023/08/02 02:30:25;;;;;;;0.40;0.40;;;;;;;14.69;83.87;95915.31;29395;207;63000;-53
2023/08/02 02:30:57;;;;;;;0.62;0.62;;;;;;;14.69;84.04;95920.78;29394;206;64013;-54
2023/08/02 02:31:31;;;;;;;0.40;0.40;;;;;;;14.70;85.50;95911.44;29395;237;63004;-55
2023/08/02 02:32:04;;;;;;;0.45;0.45;;;;;;;14.69;84.76;95912.56;29395;220;63009;-53
2023/08/02 02:32:35;;;;;;;0.50;0.50;;;;;;;14.70;85.62;95919.62;29395;394;63005;-54
2023/08/02 02:33:06;;;;;;;0.50;0.50;;;;;;;14.72;85.30;95909.16;29394;197;64014;-54
2023/08/02 02:33:37;;;;;;;0.50;0.50;;;;;;;14.70;84.86;95905.19;29395;221;63005;-55
2023/08/02 02:34:09;;;;;;;0.40;0.40;;;;;;;14.69;84.54;95909.06;29395;265;63009;-53
2023/08/02 02:34:40;;;;;;;0.50;0.50;;;;;;;14.66;84.39;95910.53;29395;230;63005;-65
2023/08/02 02:35:15;;;;;;;0.40;0.40;;;;;;;14.67;84.17;95912.12;29395;230;63009;-54
2023/08/02 02:35:46;;;;;;;0.50;0.50;;;;;;;14.66;84.84;95913.25;29395;255;63005;-53